sensor_id;sensor_type;location;lat;lon;timestamp;temperature;humidity
39815;DHT22;25495;45.948;4.568;2022-07-04T00:00:37;21.00;98.90
39815;DHT22;25495;45.948;4.568;2022-07-04T00:03:02;21.00;98.90
39815;DHT22;25495;45.948;4.568;2022-07-04T00:05:28;21.00;99.10
39815;DHT22;25495;45.948;4.568;2022-07-04T00:07:54;21.10;99.60
39815;DHT22;25495;45.948;4.568;2022-07-04T00:10:20;21.10;99.90
39815;DHT22;25495;45.948;4.568;2022-07-04T00:12:46;21.00;99.70
39815;DHT22;25495;45.948;4.568;2022-07-04T00:15:12;21.00;99.60
39815;DHT22;25495;45.948;4.568;2022-07-04T00:17:38;20.80;99.90
39815;DHT22;25495;45.948;4.568;2022-07-04T00:20:05;20.70;99.90
39815;DHT22;25495;45.948;4.568;2022-07-04T00:22:32;20.70;99.90
39815;DHT22;25495;45.948;4.568;2022-07-04T00:24:57;20.80;99.80
39815;DHT22;25495;45.948;4.568;2022-07-04T00:27:23;20.60;99.90
39815;DHT22;25495;45.948;4.568;2022-07-04T00:29:49;20.50;99.90
39815;DHT22;25495;45.948;4.568;2022-07-04T00:32:15;20.30;99.90
39815;DHT22;25495;45.948;4.568;2022-07-04T00:34:41;20.40;99.90
39815;DHT22;25495;45.948;4.568;2022-07-04T00:37:07;20.30;99.90
39815;DHT22;25495;45.948;4.568;2022-07-04T00:39:33;20.50;99.90
39815;DHT22;25495;45.948;4.568;2022-07-04T00:41:58;20.60;99.90
39815;DHT22;25495;45.948;4.568;2022-07-04T00:44:24;20.50;99.90
39815;DHT22;25495;45.948;4.568;2022-07-04T00:46:50;20.50;99.90
39815;DHT22;25495;45.948;4.568;2022-07-04T00:49:17;20.50;99.90
39815;DHT22;25495;45.948;4.568;2022-07-04T00:51:44;20.50;99.90
39815;DHT22;25495;45.948;4.568;2022-07-04T00:54:13;20.40;99.90
39815;DHT22;25495;45.948;4.568;2022-07-04T00:56:41;20.30;99.90
39815;DHT22;25495;45.948;4.568;2022-07-04T00:59:08;20.50;99.90
39815;DHT22;25495;45.948;4.568;2022-07-04T01:01:35;20.40;99.90
39815;DHT22;25495;45.948;4.568;2022-07-04T01:04:05;20.40;99.90
39815;DHT22;25495;45.948;4.568;2022-07-04T01:06:32;20.10;99.90
39815;DHT22;25495;45.948;4.568;2022-07-04T01:08:59;20.10;99.90
39815;DHT22;25495;45.948;4.568;2022-07-04T01:11:25;20.10;99.90
39815;DHT22;25495;45.948;4.568;2022-07-04T01:13:53;19.90;99.90
39815;DHT22;25495;45.948;4.568;2022-07-04T01:16:19;20.00;99.90
39815;DHT22;25495;45.948;4.568;2022-07-04T01:18:44;20.10;99.90
39815;DHT22;25495;45.948;4.568;2022-07-04T01:21:10;20.00;99.90
39815;DHT22;25495;45.948;4.568;2022-07-04T01:23:38;19.80;99.90
39815;DHT22;25495;45.948;4.568;2022-07-04T01:26:04;19.80;99.90
39815;DHT22;25495;45.948;4.568;2022-07-04T01:28:30;19.80;99.90
39815;DHT22;25495;45.948;4.568;2022-07-04T01:30:55;19.80;99.90
39815;DHT22;25495;45.948;4.568;2022-07-04T01:33:21;19.80;99.90
39815;DHT22;25495;45.948;4.568;2022-07-04T01:35:47;19.80;99.90
39815;DHT22;25495;45.948;4.568;2022-07-04T01:38:13;19.50;99.90
39815;DHT22;25495;45.948;4.568;2022-07-04T01:40:39;19.60;99.90
39815;DHT22;25495;45.948;4.568;2022-07-04T01:43:05;19.30;99.90
39815;DHT22;25495;45.948;4.568;2022-07-04T01:45:31;19.50;99.90
39815;DHT22;25495;45.948;4.568;2022-07-04T01:48:07;19.50;99.90
39815;DHT22;25495;45.948;4.568;2022-07-04T01:50:34;19.40;99.90
39815;DHT22;25495;45.948;4.568;2022-07-04T01:53:00;19.40;99.90
39815;DHT22;25495;45.948;4.568;2022-07-04T01:55:26;19.50;99.90
39815;DHT22;25495;45.948;4.568;2022-07-04T01:57:52;19.50;99.90
39815;DHT22;25495;45.948;4.568;2022-07-04T02:00:17;19.50;99.90
39815;DHT22;25495;45.948;4.568;2022-07-04T02:03:02;19.50;99.90
39815;DHT22;25495;45.948;4.568;2022-07-04T02:05:27;19.50;99.90
39815;DHT22;25495;45.948;4.568;2022-07-04T02:07:53;19.50;99.90
39815;DHT22;25495;45.948;4.568;2022-07-04T02:10:19;19.50;99.90
39815;DHT22;25495;45.948;4.568;2022-07-04T02:15:34;19.20;99.90
39815;DHT22;25495;45.948;4.568;2022-07-04T02:18:02;19.10;99.90
39815;DHT22;25495;45.948;4.568;2022-07-04T02:20:28;19.00;99.90
39815;DHT22;25495;45.948;4.568;2022-07-04T02:22:54;19.00;99.90
39815;DHT22;25495;45.948;4.568;2022-07-04T02:25:20;19.10;99.90
39815;DHT22;25495;45.948;4.568;2022-07-04T02:27:46;19.30;99.90
39815;DHT22;25495;45.948;4.568;2022-07-04T02:30:12;19.10;99.90
39815;DHT22;25495;45.948;4.568;2022-07-04T02:32:38;19.10;99.90
39815;DHT22;25495;45.948;4.568;2022-07-04T02:35:05;19.20;99.90
39815;DHT22;25495;45.948;4.568;2022-07-04T02:37:31;19.00;99.90
39815;DHT22;25495;45.948;4.568;2022-07-04T02:39:57;19.00;99.90
39815;DHT22;25495;45.948;4.568;2022-07-04T02:42:23;19.00;99.90
39815;DHT22;25495;45.948;4.568;2022-07-04T02:44:49;19.00;99.90
39815;DHT22;25495;45.948;4.568;2022-07-04T02:47:15;19.00;99.90
39815;DHT22;25495;45.948;4.568;2022-07-04T02:49:41;18.90;99.90
39815;DHT22;25495;45.948;4.568;2022-07-04T02:52:07;19.00;99.90
39815;DHT22;25495;45.948;4.568;2022-07-04T02:54:33;18.90;99.90
39815;DHT22;25495;45.948;4.568;2022-07-04T02:56:59;18.90;99.90
39815;DHT22;25495;45.948;4.568;2022-07-04T02:59:24;18.80;99.90
39815;DHT22;25495;45.948;4.568;2022-07-04T03:01:50;18.90;99.90
39815;DHT22;25495;45.948;4.568;2022-07-04T03:04:16;18.90;99.90
39815;DHT22;25495;45.948;4.568;2022-07-04T03:06:42;18.90;99.90
39815;DHT22;25495;45.948;4.568;2022-07-04T03:09:09;19.00;99.90
39815;DHT22;25495;45.948;4.568;2022-07-04T03:11:35;18.80;99.90
39815;DHT22;25495;45.948;4.568;2022-07-04T03:14:01;18.70;99.90
39815;DHT22;25495;45.948;4.568;2022-07-04T03:16:27;18.60;99.90
39815;DHT22;25495;45.948;4.568;2022-07-04T03:18:52;18.80;99.90
39815;DHT22;25495;45.948;4.568;2022-07-04T03:21:18;18.60;99.90
39815;DHT22;25495;45.948;4.568;2022-07-04T03:23:44;18.50;99.90
39815;DHT22;25495;45.948;4.568;2022-07-04T03:26:27;18.50;99.90
39815;DHT22;25495;45.948;4.568;2022-07-04T03:28:55;18.30;99.90
39815;DHT22;25495;45.948;4.568;2022-07-04T03:31:20;18.40;99.90
39815;DHT22;25495;45.948;4.568;2022-07-04T03:33:47;18.60;99.90
39815;DHT22;25495;45.948;4.568;2022-07-04T03:36:13;18.60;99.90
39815;DHT22;25495;45.948;4.568;2022-07-04T03:38:38;18.70;99.90
39815;DHT22;25495;45.948;4.568;2022-07-04T03:41:04;18.80;99.90
39815;DHT22;25495;45.948;4.568;2022-07-04T03:43:30;18.80;99.90
39815;DHT22;25495;45.948;4.568;2022-07-04T03:45:56;18.80;99.90
39815;DHT22;25495;45.948;4.568;2022-07-04T03:48:21;18.80;99.90
39815;DHT22;25495;45.948;4.568;2022-07-04T03:50:47;18.90;99.90
39815;DHT22;25495;45.948;4.568;2022-07-04T03:53:13;18.80;99.90
39815;DHT22;25495;45.948;4.568;2022-07-04T03:55:40;18.70;99.90
39815;DHT22;25495;45.948;4.568;2022-07-04T03:58:06;18.50;99.90
39815;DHT22;25495;45.948;4.568;2022-07-04T04:00:32;18.30;99.90
39815;DHT22;25495;45.948;4.568;2022-07-04T04:02:58;18.40;99.90
39815;DHT22;25495;45.948;4.568;2022-07-04T04:05:24;18.60;99.90
39815;DHT22;25495;45.948;4.568;2022-07-04T04:07:58;18.50;99.90
39815;DHT22;25495;45.948;4.568;2022-07-04T04:10:25;18.60;99.90
39815;DHT22;25495;45.948;4.568;2022-07-04T04:12:52;18.50;99.90
39815;DHT22;25495;45.948;4.568;2022-07-04T04:15:17;18.50;99.90
39815;DHT22;25495;45.948;4.568;2022-07-04T04:17:43;18.50;99.90
39815;DHT22;25495;45.948;4.568;2022-07-04T04:20:09;18.50;99.90
39815;DHT22;25495;45.948;4.568;2022-07-04T04:22:35;18.50;99.90
39815;DHT22;25495;45.948;4.568;2022-07-04T04:25:01;18.30;99.90
39815;DHT22;25495;45.948;4.568;2022-07-04T04:27:27;18.20;99.90
39815;DHT22;25495;45.948;4.568;2022-07-04T04:29:53;18.30;99.90
39815;DHT22;25495;45.948;4.568;2022-07-04T04:32:19;18.50;99.90
39815;DHT22;25495;45.948;4.568;2022-07-04T04:34:44;18.50;99.90
39815;DHT22;25495;45.948;4.568;2022-07-04T04:37:10;18.40;99.90
39815;DHT22;25495;45.948;4.568;2022-07-04T04:39:36;18.30;99.90
39815;DHT22;25495;45.948;4.568;2022-07-04T04:42:02;18.40;99.90
39815;DHT22;25495;45.948;4.568;2022-07-04T04:44:28;18.10;99.90
39815;DHT22;25495;45.948;4.568;2022-07-04T04:46:54;18.20;99.90
39815;DHT22;25495;45.948;4.568;2022-07-04T04:49:19;18.00;99.90
39815;DHT22;25495;45.948;4.568;2022-07-04T04:51:45;17.90;99.90
39815;DHT22;25495;45.948;4.568;2022-07-04T04:54:11;17.90;99.90
39815;DHT22;25495;45.948;4.568;2022-07-04T04:56:37;17.90;99.90
39815;DHT22;25495;45.948;4.568;2022-07-04T04:59:03;17.90;99.90
39815;DHT22;25495;45.948;4.568;2022-07-04T05:01:28;17.80;99.90
39815;DHT22;25495;45.948;4.568;2022-07-04T05:03:54;17.90;99.90
39815;DHT22;25495;45.948;4.568;2022-07-04T05:06:20;18.00;99.90
39815;DHT22;25495;45.948;4.568;2022-07-04T05:08:46;17.90;99.90
39815;DHT22;25495;45.948;4.568;2022-07-04T05:11:12;17.90;99.90
39815;DHT22;25495;45.948;4.568;2022-07-04T05:13:37;18.00;99.90
39815;DHT22;25495;45.948;4.568;2022-07-04T05:16:03;18.00;99.90
39815;DHT22;25495;45.948;4.568;2022-07-04T05:18:29;18.00;99.90
39815;DHT22;25495;45.948;4.568;2022-07-04T05:20:55;18.10;99.90
39815;DHT22;25495;45.948;4.568;2022-07-04T05:23:21;18.30;99.90
39815;DHT22;25495;45.948;4.568;2022-07-04T05:25:47;18.50;99.90
39815;DHT22;25495;45.948;4.568;2022-07-04T05:28:13;18.80;99.90
39815;DHT22;25495;45.948;4.568;2022-07-04T05:30:39;18.80;99.90
39815;DHT22;25495;45.948;4.568;2022-07-04T05:33:05;18.80;99.90
39815;DHT22;25495;45.948;4.568;2022-07-04T05:35:30;19.10;99.90
39815;DHT22;25495;45.948;4.568;2022-07-04T05:37:57;19.30;99.90
39815;DHT22;25495;45.948;4.568;2022-07-04T05:40:23;19.10;99.90
39815;DHT22;25495;45.948;4.568;2022-07-04T05:42:48;19.00;99.90
39815;DHT22;25495;45.948;4.568;2022-07-04T05:45:14;18.90;99.90
39815;DHT22;25495;45.948;4.568;2022-07-04T05:47:41;18.90;99.90
39815;DHT22;25495;45.948;4.568;2022-07-04T05:50:07;18.90;99.90
39815;DHT22;25495;45.948;4.568;2022-07-04T05:52:32;19.00;99.90
39815;DHT22;25495;45.948;4.568;2022-07-04T05:54:58;19.00;99.90
39815;DHT22;25495;45.948;4.568;2022-07-04T05:57:24;19.00;99.90
39815;DHT22;25495;45.948;4.568;2022-07-04T05:59:50;19.10;99.90
39815;DHT22;25495;45.948;4.568;2022-07-04T06:02:15;18.90;99.90
39815;DHT22;25495;45.948;4.568;2022-07-04T06:04:41;18.90;99.90
39815;DHT22;25495;45.948;4.568;2022-07-04T06:07:09;18.80;99.90
39815;DHT22;25495;45.948;4.568;2022-07-04T06:09:35;19.00;99.90
39815;DHT22;25495;45.948;4.568;2022-07-04T06:12:01;19.20;99.90
39815;DHT22;25495;45.948;4.568;2022-07-04T06:14:27;19.50;99.90
39815;DHT22;25495;45.948;4.568;2022-07-04T06:16:53;19.60;99.90
39815;DHT22;25495;45.948;4.568;2022-07-04T06:19:19;19.60;99.90
39815;DHT22;25495;45.948;4.568;2022-07-04T06:21:45;19.40;99.90
39815;DHT22;25495;45.948;4.568;2022-07-04T06:24:11;19.40;99.90
39815;DHT22;25495;45.948;4.568;2022-07-04T06:26:36;19.50;99.90
39815;DHT22;25495;45.948;4.568;2022-07-04T06:29:02;19.70;99.90
39815;DHT22;25495;45.948;4.568;2022-07-04T06:31:28;19.80;99.90
39815;DHT22;25495;45.948;4.568;2022-07-04T06:33:54;19.90;99.90
39815;DHT22;25495;45.948;4.568;2022-07-04T06:36:38;19.70;99.90
39815;DHT22;25495;45.948;4.568;2022-07-04T06:39:04;19.90;99.90
39815;DHT22;25495;45.948;4.568;2022-07-04T06:41:29;19.70;99.90
39815;DHT22;25495;45.948;4.568;2022-07-04T06:43:55;19.80;99.90
39815;DHT22;25495;45.948;4.568;2022-07-04T06:46:21;19.70;99.90
39815;DHT22;25495;45.948;4.568;2022-07-04T06:48:47;20.00;99.90
39815;DHT22;25495;45.948;4.568;2022-07-04T06:51:12;20.60;99.90
39815;DHT22;25495;45.948;4.568;2022-07-04T06:53:41;20.80;99.90
39815;DHT22;25495;45.948;4.568;2022-07-04T06:56:07;20.50;99.90
39815;DHT22;25495;45.948;4.568;2022-07-04T06:58:32;20.40;99.90
39815;DHT22;25495;45.948;4.568;2022-07-04T07:00:58;20.60;99.90
39815;DHT22;25495;45.948;4.568;2022-07-04T07:03:24;20.70;99.90
39815;DHT22;25495;45.948;4.568;2022-07-04T07:05:50;20.80;99.90
39815;DHT22;25495;45.948;4.568;2022-07-04T07:08:16;20.50;99.90
39815;DHT22;25495;45.948;4.568;2022-07-04T07:10:41;20.40;99.90
39815;DHT22;25495;45.948;4.568;2022-07-04T07:13:07;20.80;99.90
39815;DHT22;25495;45.948;4.568;2022-07-04T07:15:34;21.30;99.90
39815;DHT22;25495;45.948;4.568;2022-07-04T07:18:03;21.90;99.90
39815;DHT22;25495;45.948;4.568;2022-07-04T07:20:30;22.20;99.90
39815;DHT22;25495;45.948;4.568;2022-07-04T07:22:55;22.20;99.90
39815;DHT22;25495;45.948;4.568;2022-07-04T07:25:21;21.80;99.90
39815;DHT22;25495;45.948;4.568;2022-07-04T07:27:47;21.30;99.90
39815;DHT22;25495;45.948;4.568;2022-07-04T07:30:13;21.90;99.90
39815;DHT22;25495;45.948;4.568;2022-07-04T07:32:39;22.00;99.90
39815;DHT22;25495;45.948;4.568;2022-07-04T07:35:05;21.70;99.90
39815;DHT22;25495;45.948;4.568;2022-07-04T07:37:31;21.10;99.90
39815;DHT22;25495;45.948;4.568;2022-07-04T07:39:56;21.10;99.90
39815;DHT22;25495;45.948;4.568;2022-07-04T07:42:24;21.10;99.90
39815;DHT22;25495;45.948;4.568;2022-07-04T07:44:50;21.30;99.90
39815;DHT22;25495;45.948;4.568;2022-07-04T07:47:16;20.70;99.90
39815;DHT22;25495;45.948;4.568;2022-07-04T07:49:42;20.50;99.90
39815;DHT22;25495;45.948;4.568;2022-07-04T07:52:08;20.70;99.90
39815;DHT22;25495;45.948;4.568;2022-07-04T07:54:35;21.20;99.90
39815;DHT22;25495;45.948;4.568;2022-07-04T07:57:00;21.50;99.90
39815;DHT22;25495;45.948;4.568;2022-07-04T07:59:26;22.50;99.90
39815;DHT22;25495;45.948;4.568;2022-07-04T08:01:52;22.70;99.90
39815;DHT22;25495;45.948;4.568;2022-07-04T08:04:17;23.10;99.90
39815;DHT22;25495;45.948;4.568;2022-07-04T08:07:08;23.50;99.90
39815;DHT22;25495;45.948;4.568;2022-07-04T08:09:35;23.90;99.90
39815;DHT22;25495;45.948;4.568;2022-07-04T08:12:02;23.60;99.90
39815;DHT22;25495;45.948;4.568;2022-07-04T08:14:29;23.90;99.90
39815;DHT22;25495;45.948;4.568;2022-07-04T08:16:55;24.10;99.90
39815;DHT22;25495;45.948;4.568;2022-07-04T08:19:21;24.30;99.90
39815;DHT22;25495;45.948;4.568;2022-07-04T08:21:47;23.60;99.90
39815;DHT22;25495;45.948;4.568;2022-07-04T08:24:16;24.10;99.90
39815;DHT22;25495;45.948;4.568;2022-07-04T08:26:43;24.10;99.90
39815;DHT22;25495;45.948;4.568;2022-07-04T08:29:09;23.30;99.90
39815;DHT22;25495;45.948;4.568;2022-07-04T08:31:34;23.50;99.90
39815;DHT22;25495;45.948;4.568;2022-07-04T08:34:00;23.60;99.90
39815;DHT22;25495;45.948;4.568;2022-07-04T08:36:26;23.70;99.90
39815;DHT22;25495;45.948;4.568;2022-07-04T08:38:52;23.60;99.90
39815;DHT22;25495;45.948;4.568;2022-07-04T08:41:19;23.60;99.90
39815;DHT22;25495;45.948;4.568;2022-07-04T08:43:47;23.50;99.90
39815;DHT22;25495;45.948;4.568;2022-07-04T08:46:15;23.40;99.90
39815;DHT22;25495;45.948;4.568;2022-07-04T08:48:42;23.70;99.90
39815;DHT22;25495;45.948;4.568;2022-07-04T08:51:16;23.50;99.90
39815;DHT22;25495;45.948;4.568;2022-07-04T08:53:55;23.30;99.90
39815;DHT22;25495;45.948;4.568;2022-07-04T08:56:22;23.30;99.90
39815;DHT22;25495;45.948;4.568;2022-07-04T08:59:07;23.30;99.90
39815;DHT22;25495;45.948;4.568;2022-07-04T09:01:33;22.70;99.90
39815;DHT22;25495;45.948;4.568;2022-07-04T09:04:00;22.90;99.90
39815;DHT22;25495;45.948;4.568;2022-07-04T09:06:27;22.90;99.90
39815;DHT22;25495;45.948;4.568;2022-07-04T09:08:54;22.90;99.90
39815;DHT22;25495;45.948;4.568;2022-07-04T09:11:21;22.80;99.90
39815;DHT22;25495;45.948;4.568;2022-07-04T09:13:47;23.00;99.90
39815;DHT22;25495;45.948;4.568;2022-07-04T09:16:14;22.80;99.90
39815;DHT22;25495;45.948;4.568;2022-07-04T09:18:40;23.00;99.90
39815;DHT22;25495;45.948;4.568;2022-07-04T09:21:07;23.10;99.90
39815;DHT22;25495;45.948;4.568;2022-07-04T09:23:39;23.10;99.90
39815;DHT22;25495;45.948;4.568;2022-07-04T09:28:36;23.20;99.90
39815;DHT22;25495;45.948;4.568;2022-07-04T09:31:12;23.30;99.90
39815;DHT22;25495;45.948;4.568;2022-07-04T09:33:50;23.30;99.90
39815;DHT22;25495;45.948;4.568;2022-07-04T09:36:19;23.10;99.90
39815;DHT22;25495;45.948;4.568;2022-07-04T09:38:46;23.40;99.90
39815;DHT22;25495;45.948;4.568;2022-07-04T09:41:13;23.40;99.90
39815;DHT22;25495;45.948;4.568;2022-07-04T09:44:01;23.30;99.90
39815;DHT22;25495;45.948;4.568;2022-07-04T09:46:28;23.30;99.90
39815;DHT22;25495;45.948;4.568;2022-07-04T09:48:54;23.00;99.90
39815;DHT22;25495;45.948;4.568;2022-07-04T09:51:36;23.00;99.90
39815;DHT22;25495;45.948;4.568;2022-07-04T09:54:24;23.10;99.90
39815;DHT22;25495;45.948;4.568;2022-07-04T09:56:57;23.40;99.90
39815;DHT22;25495;45.948;4.568;2022-07-04T09:59:24;23.30;99.90
39815;DHT22;25495;45.948;4.568;2022-07-04T10:01:51;23.90;99.90
39815;DHT22;25495;45.948;4.568;2022-07-04T10:04:17;23.90;99.90
39815;DHT22;25495;45.948;4.568;2022-07-04T10:06:44;23.60;99.90
39815;DHT22;25495;45.948;4.568;2022-07-04T10:09:16;23.70;99.90
39815;DHT22;25495;45.948;4.568;2022-07-04T10:11:44;23.60;99.90
39815;DHT22;25495;45.948;4.568;2022-07-04T10:14:12;24.10;99.90
39815;DHT22;25495;45.948;4.568;2022-07-04T10:16:39;24.10;99.90
39815;DHT22;25495;45.948;4.568;2022-07-04T10:19:06;24.10;99.90
39815;DHT22;25495;45.948;4.568;2022-07-04T10:21:33;23.90;99.90
39815;DHT22;25495;45.948;4.568;2022-07-04T10:24:00;23.70;99.90
39815;DHT22;25495;45.948;4.568;2022-07-04T10:26:29;23.90;99.90
39815;DHT22;25495;45.948;4.568;2022-07-04T10:28:55;23.80;99.90
39815;DHT22;25495;45.948;4.568;2022-07-04T10:31:23;23.60;99.90
39815;DHT22;25495;45.948;4.568;2022-07-04T10:33:50;24.00;99.90
39815;DHT22;25495;45.948;4.568;2022-07-04T10:36:19;23.80;99.90
39815;DHT22;25495;45.948;4.568;2022-07-04T10:38:53;23.80;99.90
39815;DHT22;25495;45.948;4.568;2022-07-04T10:41:21;23.80;99.90
39815;DHT22;25495;45.948;4.568;2022-07-04T10:54:15;24.30;99.90
39815;DHT22;25495;45.948;4.568;2022-07-04T10:59:17;23.90;99.90
39815;DHT22;25495;45.948;4.568;2022-07-04T11:01:51;23.90;99.90
39815;DHT22;25495;45.948;4.568;2022-07-04T11:04:50;23.80;99.90
39815;DHT22;25495;45.948;4.568;2022-07-04T11:07:18;23.90;99.90
39815;DHT22;25495;45.948;4.568;2022-07-04T11:09:45;23.80;99.90
39815;DHT22;25495;45.948;4.568;2022-07-04T11:12:11;23.70;99.90
39815;DHT22;25495;45.948;4.568;2022-07-04T11:14:46;23.70;99.90
39815;DHT22;25495;45.948;4.568;2022-07-04T11:17:20;23.90;99.90
39815;DHT22;25495;45.948;4.568;2022-07-04T11:19:47;24.10;99.90
39815;DHT22;25495;45.948;4.568;2022-07-04T11:22:22;24.40;99.90
39815;DHT22;25495;45.948;4.568;2022-07-04T11:24:48;24.30;99.90
39815;DHT22;25495;45.948;4.568;2022-07-04T11:27:14;24.60;99.90
39815;DHT22;25495;45.948;4.568;2022-07-04T11:29:52;24.80;99.90
39815;DHT22;25495;45.948;4.568;2022-07-04T11:32:21;24.30;99.90
39815;DHT22;25495;45.948;4.568;2022-07-04T11:34:55;24.40;99.90
39815;DHT22;25495;45.948;4.568;2022-07-04T11:37:21;24.30;99.90
39815;DHT22;25495;45.948;4.568;2022-07-04T11:39:51;24.40;99.90
39815;DHT22;25495;45.948;4.568;2022-07-04T11:42:17;24.40;99.90
39815;DHT22;25495;45.948;4.568;2022-07-04T11:45:01;24.60;99.90
39815;DHT22;25495;45.948;4.568;2022-07-04T11:47:41;24.40;99.90
39815;DHT22;25495;45.948;4.568;2022-07-04T11:50:12;24.00;99.90
39815;DHT22;25495;45.948;4.568;2022-07-04T11:52:50;24.30;99.90
39815;DHT22;25495;45.948;4.568;2022-07-04T11:55:19;24.90;99.90
39815;DHT22;25495;45.948;4.568;2022-07-04T11:57:48;25.10;99.90
39815;DHT22;25495;45.948;4.568;2022-07-04T12:00:22;25.00;99.90
39815;DHT22;25495;45.948;4.568;2022-07-04T12:02:50;24.90;99.90
39815;DHT22;25495;45.948;4.568;2022-07-04T12:05:17;24.50;99.90
39815;DHT22;25495;45.948;4.568;2022-07-04T12:07:46;24.10;99.90
39815;DHT22;25495;45.948;4.568;2022-07-04T12:10:23;24.10;99.90
39815;DHT22;25495;45.948;4.568;2022-07-04T12:12:59;23.90;99.90
39815;DHT22;25495;45.948;4.568;2022-07-04T12:15:39;24.10;99.90
39815;DHT22;25495;45.948;4.568;2022-07-04T12:18:10;24.10;99.90
39815;DHT22;25495;45.948;4.568;2022-07-04T12:20:40;24.10;99.90
39815;DHT22;25495;45.948;4.568;2022-07-04T12:23:06;24.00;99.90
39815;DHT22;25495;45.948;4.568;2022-07-04T12:25:34;24.10;99.90
39815;DHT22;25495;45.948;4.568;2022-07-04T12:28:03;24.00;99.90
39815;DHT22;25495;45.948;4.568;2022-07-04T12:30:31;23.90;99.90
39815;DHT22;25495;45.948;4.568;2022-07-04T12:35:45;23.90;99.90
39815;DHT22;25495;45.948;4.568;2022-07-04T12:38:33;23.90;99.90
39815;DHT22;25495;45.948;4.568;2022-07-04T12:43:43;23.60;99.90
39815;DHT22;25495;45.948;4.568;2022-07-04T12:46:13;23.70;99.90
39815;DHT22;25495;45.948;4.568;2022-07-04T12:48:41;23.60;99.90
39815;DHT22;25495;45.948;4.568;2022-07-04T12:51:11;23.40;99.90
39815;DHT22;25495;45.948;4.568;2022-07-04T12:53:41;23.60;99.90
39815;DHT22;25495;45.948;4.568;2022-07-04T12:56:08;23.60;99.90
39815;DHT22;25495;45.948;4.568;2022-07-04T12:58:35;23.80;99.90
39815;DHT22;25495;45.948;4.568;2022-07-04T13:01:02;23.60;99.90
39815;DHT22;25495;45.948;4.568;2022-07-04T13:03:28;23.60;99.90
39815;DHT22;25495;45.948;4.568;2022-07-04T13:05:54;23.50;99.90
39815;DHT22;25495;45.948;4.568;2022-07-04T13:08:23;23.90;99.90
39815;DHT22;25495;45.948;4.568;2022-07-04T13:10:48;24.30;99.90
39815;DHT22;25495;45.948;4.568;2022-07-04T13:13:34;24.00;99.90
39815;DHT22;25495;45.948;4.568;2022-07-04T13:16:00;24.00;99.90
39815;DHT22;25495;45.948;4.568;2022-07-04T13:18:26;24.20;99.90
39815;DHT22;25495;45.948;4.568;2022-07-04T13:20:52;24.10;99.90
39815;DHT22;25495;45.948;4.568;2022-07-04T13:23:17;24.00;99.90
39815;DHT22;25495;45.948;4.568;2022-07-04T13:25:43;24.10;99.90
39815;DHT22;25495;45.948;4.568;2022-07-04T13:28:09;24.00;99.90
39815;DHT22;25495;45.948;4.568;2022-07-04T13:30:34;23.90;99.90
39815;DHT22;25495;45.948;4.568;2022-07-04T13:33:00;24.20;99.90
39815;DHT22;25495;45.948;4.568;2022-07-04T13:35:26;24.10;99.90
39815;DHT22;25495;45.948;4.568;2022-07-04T13:37:52;24.70;99.90
39815;DHT22;25495;45.948;4.568;2022-07-04T13:40:17;24.40;99.90
39815;DHT22;25495;45.948;4.568;2022-07-04T13:42:43;24.70;99.90
39815;DHT22;25495;45.948;4.568;2022-07-04T13:45:25;24.30;99.90
39815;DHT22;25495;45.948;4.568;2022-07-04T13:47:51;24.70;99.90
39815;DHT22;25495;45.948;4.568;2022-07-04T13:50:17;24.80;99.90
39815;DHT22;25495;45.948;4.568;2022-07-04T13:52:44;24.90;99.90
39815;DHT22;25495;45.948;4.568;2022-07-04T13:55:09;24.80;99.90
39815;DHT22;25495;45.948;4.568;2022-07-04T13:57:36;24.70;99.90
39815;DHT22;25495;45.948;4.568;2022-07-04T14:00:06;24.30;99.90
39815;DHT22;25495;45.948;4.568;2022-07-04T14:02:33;24.10;99.90
39815;DHT22;25495;45.948;4.568;2022-07-04T14:04:59;24.10;99.90
39815;DHT22;25495;45.948;4.568;2022-07-04T14:07:25;24.10;99.90
39815;DHT22;25495;45.948;4.568;2022-07-04T14:09:51;24.10;99.90
39815;DHT22;25495;45.948;4.568;2022-07-04T14:12:16;24.20;99.90
39815;DHT22;25495;45.948;4.568;2022-07-04T14:14:43;23.90;99.90
39815;DHT22;25495;45.948;4.568;2022-07-04T14:17:09;24.00;99.90
39815;DHT22;25495;45.948;4.568;2022-07-04T14:19:35;24.20;99.90
39815;DHT22;25495;45.948;4.568;2022-07-04T14:22:01;24.20;99.90
39815;DHT22;25495;45.948;4.568;2022-07-04T14:24:27;24.60;99.90
39815;DHT22;25495;45.948;4.568;2022-07-04T14:26:53;24.50;99.90
39815;DHT22;25495;45.948;4.568;2022-07-04T14:29:19;24.50;99.90
39815;DHT22;25495;45.948;4.568;2022-07-04T14:31:45;24.50;99.90
39815;DHT22;25495;45.948;4.568;2022-07-04T14:34:11;24.10;99.90
39815;DHT22;25495;45.948;4.568;2022-07-04T14:36:40;23.70;99.90
39815;DHT22;25495;45.948;4.568;2022-07-04T14:41:33;23.60;99.90
39815;DHT22;25495;45.948;4.568;2022-07-04T14:43:59;23.50;99.90
39815;DHT22;25495;45.948;4.568;2022-07-04T14:46:26;23.40;99.90
39815;DHT22;25495;45.948;4.568;2022-07-04T14:48:52;23.30;99.90
39815;DHT22;25495;45.948;4.568;2022-07-04T14:51:18;23.10;99.90
39815;DHT22;25495;45.948;4.568;2022-07-04T14:53:43;23.20;99.90
39815;DHT22;25495;45.948;4.568;2022-07-04T14:56:09;23.10;99.90
39815;DHT22;25495;45.948;4.568;2022-07-04T14:58:35;23.20;99.90
39815;DHT22;25495;45.948;4.568;2022-07-04T15:01:01;23.10;99.90
39815;DHT22;25495;45.948;4.568;2022-07-04T15:03:27;23.10;99.90
39815;DHT22;25495;45.948;4.568;2022-07-04T15:05:52;23.10;99.90
39815;DHT22;25495;45.948;4.568;2022-07-04T15:08:18;23.10;99.90
39815;DHT22;25495;45.948;4.568;2022-07-04T15:10:44;23.20;99.90
39815;DHT22;25495;45.948;4.568;2022-07-04T15:13:10;23.20;99.90
39815;DHT22;25495;45.948;4.568;2022-07-04T15:15:35;23.20;99.90
39815;DHT22;25495;45.948;4.568;2022-07-04T15:18:01;23.40;99.90
39815;DHT22;25495;45.948;4.568;2022-07-04T15:20:28;23.70;99.90
39815;DHT22;25495;45.948;4.568;2022-07-04T15:23:12;23.70;99.90
39815;DHT22;25495;45.948;4.568;2022-07-04T15:25:56;23.80;99.90
39815;DHT22;25495;45.948;4.568;2022-07-04T15:28:22;23.90;99.90
39815;DHT22;25495;45.948;4.568;2022-07-04T15:30:48;23.90;99.90
39815;DHT22;25495;45.948;4.568;2022-07-04T15:33:14;23.70;99.90
39815;DHT22;25495;45.948;4.568;2022-07-04T15:35:42;23.90;99.90
39815;DHT22;25495;45.948;4.568;2022-07-04T15:38:08;24.10;99.90
39815;DHT22;25495;45.948;4.568;2022-07-04T15:40:34;24.00;99.90
39815;DHT22;25495;45.948;4.568;2022-07-04T15:43:00;23.90;99.90
39815;DHT22;25495;45.948;4.568;2022-07-04T15:45:26;24.00;99.90
39815;DHT22;25495;45.948;4.568;2022-07-04T15:47:52;23.90;99.90
39815;DHT22;25495;45.948;4.568;2022-07-04T15:50:18;23.90;99.90
39815;DHT22;25495;45.948;4.568;2022-07-04T15:52:43;24.10;99.90
39815;DHT22;25495;45.948;4.568;2022-07-04T15:55:09;23.70;99.90
39815;DHT22;25495;45.948;4.568;2022-07-04T15:57:35;23.60;99.90